EZS96XV LSGG-LFKJ
Flight info
| Callsign | EZS96XV |
|---|---|
| Flight time | 0h 59m |
| Altitude | 33000 |
| Route | MEDAM1N MEDAM DCT OMARD M623 VAREK VAREK3F |
| Aircraft | A320/M-SDE2E3FGHIJ1RWXYZ/LB1 |
Departure
| Time | 2026-04-20 18:43 |
|---|---|
| Airport | Geneva International Airport (LSGG) |
Arrival
| Time | 2026-04-20 19:43 |
|---|---|
| Airport | Ajaccio Napoléon Bonaparte airport (LFKJ) |
| Time | Latitude | Longitude | Altitude | Speed | Heading |
|---|---|---|---|---|---|
| 2026-04-20 18:04 | 46.23048 | 6.10265 | 1393 ft | 0 kts | 180° |
| 2026-04-20 18:37 | 46.23046 | 6.10265 | 1393 ft | 2 kts | 180° |
| 2026-04-20 18:37 | 46.23030 | 6.10227 | 1393 ft | 9 kts | 280° |
| 2026-04-20 18:37 | 46.23059 | 6.10153 | 1394 ft | 8 kts | 285° |
| 2026-04-20 18:38 | 46.23030 | 6.10089 | 1397 ft | 7 kts | 225° |
| 2026-04-20 18:38 | 46.22996 | 6.10040 | 1395 ft | 6 kts | 225° |
| 2026-04-20 18:38 | 46.22970 | 6.10002 | 1398 ft | 5 kts | 225° |
| 2026-04-20 18:38 | 46.22951 | 6.09975 | 1403 ft | 3 kts | 225° |
| 2026-04-20 18:39 | 46.22937 | 6.09954 | 1403 ft | 5 kts | 225° |
| 2026-04-20 18:39 | 46.22888 | 6.09882 | 1395 ft | 13 kts | 225° |
| 2026-04-20 18:39 | 46.22817 | 6.09779 | 1395 ft | 16 kts | 225° |
| 2026-04-20 18:39 | 46.22736 | 6.09659 | 1406 ft | 18 kts | 226° |
| 2026-04-20 18:40 | 46.22640 | 6.09521 | 1395 ft | 21 kts | 225° |
| 2026-04-20 18:40 | 46.22570 | 6.09405 | 1398 ft | 13 kts | 242° |
| 2026-04-20 18:40 | 46.22551 | 6.09306 | 1408 ft | 7 kts | 264° |
| 2026-04-20 18:40 | 46.22550 | 6.09277 | 1412 ft | 0 kts | 269° |
| 2026-04-20 18:41 | 46.22550 | 6.09270 | 1407 ft | 2 kts | 270° |
| 2026-04-20 18:41 | 46.22552 | 6.09243 | 1412 ft | 4 kts | 277° |
| 2026-04-20 18:41 | 46.22563 | 6.09185 | 1414 ft | 8 kts | 291° |
| 2026-04-20 18:42 | 46.22604 | 6.09143 | 1416 ft | 6 kts | 7° |
| 2026-04-20 18:42 | 46.22631 | 6.09172 | 1416 ft | 0 kts | 45° |
| 2026-04-20 18:42 | 46.22636 | 6.09178 | 1420 ft | 6 kts | 45° |
| 2026-04-20 18:43 | 46.22820 | 6.09448 | 1418 ft | 73 kts | 45° |
| 2026-04-20 18:43 | 46.23329 | 6.10193 | 1402 ft | 133 kts | 45° |
| 2026-04-20 18:43 | 46.24096 | 6.11324 | 1400 ft | 177 kts | 45° |
| 2026-04-20 18:43 | 46.24926 | 6.12578 | 2052 ft | 171 kts | 46° |
| 2026-04-20 18:44 | 46.25741 | 6.13796 | 2696 ft | 171 kts | 45° |
| 2026-04-20 18:44 | 46.26573 | 6.15015 | 3327 ft | 170 kts | 45° |
| 2026-04-20 18:44 | 46.27413 | 6.16230 | 3873 ft | 171 kts | 44° |
| 2026-04-20 18:44 | 46.28255 | 6.17453 | 4397 ft | 172 kts | 44° |
| 2026-04-20 18:45 | 46.29118 | 6.18719 | 4766 ft | 186 kts | 45° |
| 2026-04-20 18:45 | 46.30074 | 6.20128 | 4953 ft | 208 kts | 45° |
| 2026-04-20 18:45 | 46.31142 | 6.21702 | 5144 ft | 232 kts | 45° |
| 2026-04-20 18:45 | 46.32330 | 6.23448 | 5445 ft | 255 kts | 45° |
| 2026-04-20 18:46 | 46.33571 | 6.25283 | 6319 ft | 250 kts | 47° |
| 2026-04-20 18:46 | 46.34444 | 6.27419 | 7172 ft | 250 kts | 75° |
| 2026-04-20 18:46 | 46.34486 | 6.29918 | 7894 ft | 253 kts | 105° |
| 2026-04-20 18:46 | 46.33662 | 6.32152 | 8590 ft | 256 kts | 134° |
| 2026-04-20 18:47 | 46.32183 | 6.33571 | 9275 ft | 260 kts | 160° |
| 2026-04-20 18:47 | 46.30343 | 6.33964 | 9579 ft | 280 kts | 184° |
| 2026-04-20 18:47 | 46.28351 | 6.33727 | 10094 ft | 292 kts | 186° |
| 2026-04-20 18:47 | 46.26267 | 6.33457 | 10429 ft | 312 kts | 186° |
| 2026-04-20 18:48 | 46.24042 | 6.33169 | 10754 ft | 329 kts | 186° |
| 2026-04-20 18:48 | 46.21730 | 6.32878 | 11404 ft | 335 kts | 186° |
| 2026-04-20 18:48 | 46.19393 | 6.32592 | 12136 ft | 338 kts | 186° |
| 2026-04-20 18:48 | 46.17041 | 6.32309 | 12847 ft | 341 kts | 186° |
| 2026-04-20 18:49 | 46.14665 | 6.32028 | 13495 ft | 345 kts | 187° |
| 2026-04-20 18:49 | 46.12256 | 6.31748 | 14112 ft | 349 kts | 187° |
| 2026-04-20 18:49 | 46.09821 | 6.31465 | 14708 ft | 353 kts | 187° |
| 2026-04-20 18:49 | 46.07359 | 6.31178 | 15298 ft | 357 kts | 188° |
| 2026-04-20 18:50 | 46.04868 | 6.30887 | 15869 ft | 361 kts | 188° |
| 2026-04-20 18:50 | 46.02348 | 6.30593 | 16431 ft | 365 kts | 189° |
| 2026-04-20 18:50 | 45.99804 | 6.30294 | 17008 ft | 369 kts | 189° |
| 2026-04-20 18:50 | 45.97225 | 6.29986 | 17565 ft | 373 kts | 189° |
| 2026-04-20 18:51 | 45.94622 | 6.29676 | 18116 ft | 378 kts | 190° |
| 2026-04-20 18:51 | 45.91977 | 6.29569 | 18661 ft | 386 kts | 181° |
| 2026-04-20 18:51 | 45.89300 | 6.30213 | 19174 ft | 396 kts | 168° |
| 2026-04-20 18:51 | 45.86711 | 6.31689 | 19655 ft | 406 kts | 155° |
| 2026-04-20 18:52 | 45.84339 | 6.33949 | 20118 ft | 414 kts | 146° |
| 2026-04-20 18:52 | 45.82031 | 6.36440 | 20638 ft | 417 kts | 146° |
| 2026-04-20 18:52 | 45.79696 | 6.38932 | 21112 ft | 420 kts | 146° |
| 2026-04-20 18:52 | 45.77336 | 6.41431 | 21588 ft | 423 kts | 147° |
| 2026-04-20 18:53 | 45.74957 | 6.43936 | 22042 ft | 427 kts | 147° |
| 2026-04-20 18:53 | 45.72557 | 6.46461 | 22498 ft | 430 kts | 147° |
| 2026-04-20 18:53 | 45.70138 | 6.49011 | 22945 ft | 434 kts | 147° |
| 2026-04-20 18:53 | 45.67695 | 6.51586 | 23402 ft | 437 kts | 147° |
| 2026-04-20 18:54 | 45.65243 | 6.54174 | 23800 ft | 440 kts | 147° |
| 2026-04-20 18:54 | 45.62774 | 6.56776 | 24200 ft | 443 kts | 147° |
| 2026-04-20 18:54 | 45.60287 | 6.59392 | 24602 ft | 445 kts | 147° |
| 2026-04-20 18:54 | 45.57788 | 6.62023 | 24991 ft | 448 kts | 147° |
| 2026-04-20 18:55 | 45.55272 | 6.64676 | 25342 ft | 450 kts | 147° |
| 2026-04-20 18:55 | 45.53603 | 6.66434 | 25606 ft | 452 kts | 147° |
| 2026-04-20 18:55 | 45.50205 | 6.69996 | 26098 ft | 455 kts | 148° |
| 2026-04-20 18:55 | 45.47643 | 6.72672 | 26454 ft | 457 kts | 148° |
| 2026-04-20 18:56 | 45.45070 | 6.75354 | 26781 ft | 459 kts | 148° |
| 2026-04-20 18:56 | 45.42475 | 6.78017 | 27089 ft | 461 kts | 149° |
| 2026-04-20 18:56 | 45.39852 | 6.80661 | 27423 ft | 463 kts | 149° |
| 2026-04-20 18:56 | 45.38102 | 6.82406 | 27656 ft | 464 kts | 149° |
| 2026-04-20 18:57 | 45.35446 | 6.85038 | 27959 ft | 466 kts | 149° |
| 2026-04-20 18:57 | 45.32775 | 6.87678 | 28266 ft | 469 kts | 149° |
| 2026-04-20 18:57 | 45.30097 | 6.90333 | 28584 ft | 470 kts | 150° |
| 2026-04-20 18:57 | 45.27309 | 6.92719 | 28827 ft | 467 kts | 159° |
| 2026-04-20 18:58 | 45.21267 | 6.95637 | 28906 ft | 454 kts | 174° |
| 2026-04-20 18:58 | 45.15084 | 6.97537 | 28904 ft | 454 kts | 174° |
| 2026-04-20 18:59 | 45.08917 | 6.99462 | 28905 ft | 454 kts | 174° |
| 2026-04-20 18:59 | 45.02743 | 7.01385 | 28906 ft | 454 kts | 174° |
| 2026-04-20 19:00 | 44.96573 | 7.03302 | 28905 ft | 454 kts | 174° |
| 2026-04-20 19:00 | 44.90409 | 7.05205 | 28904 ft | 453 kts | 174° |
| 2026-04-20 19:01 | 44.84241 | 7.07102 | 28906 ft | 453 kts | 174° |
| 2026-04-20 19:01 | 44.78073 | 7.09006 | 28915 ft | 454 kts | 174° |
| 2026-04-20 19:02 | 44.71905 | 7.10911 | 28914 ft | 454 kts | 174° |
| 2026-04-20 19:02 | 44.65733 | 7.12810 | 28914 ft | 454 kts | 174° |
| 2026-04-20 19:03 | 44.59548 | 7.14697 | 28915 ft | 454 kts | 174° |
| 2026-04-20 19:03 | 44.53369 | 7.16573 | 28916 ft | 455 kts | 174° |
| 2026-04-20 19:04 | 44.47191 | 7.18458 | 28926 ft | 455 kts | 174° |
| 2026-04-20 19:04 | 44.41007 | 7.20343 | 28924 ft | 455 kts | 174° |
| 2026-04-20 19:05 | 44.34830 | 7.22221 | 28925 ft | 455 kts | 174° |
| 2026-04-20 19:05 | 44.28644 | 7.24091 | 28925 ft | 455 kts | 174° |
| 2026-04-20 19:06 | 44.22462 | 7.25954 | 28922 ft | 454 kts | 174° |
| 2026-04-20 19:06 | 44.16283 | 7.27829 | 28924 ft | 455 kts | 174° |
| 2026-04-20 19:07 | 44.10093 | 7.29692 | 28924 ft | 455 kts | 174° |
| 2026-04-20 19:07 | 44.03903 | 7.31538 | 28927 ft | 455 kts | 174° |
| 2026-04-20 19:08 | 43.94654 | 7.34301 | 28924 ft | 455 kts | 174° |
| 2026-04-20 19:09 | 43.88476 | 7.36152 | 28923 ft | 439 kts | 174° |
| 2026-04-20 19:09 | 43.82660 | 7.37900 | 28942 ft | 426 kts | 174° |
| 2026-04-20 19:10 | 43.76870 | 7.39617 | 28942 ft | 425 kts | 174° |
| 2026-04-20 19:10 | 43.71094 | 7.41319 | 28950 ft | 425 kts | 174° |
| 2026-04-20 19:11 | 43.65316 | 7.43025 | 28943 ft | 424 kts | 174° |
| 2026-04-20 19:11 | 43.59543 | 7.44734 | 28941 ft | 424 kts | 174° |
| 2026-04-20 19:12 | 43.53776 | 7.46435 | 28937 ft | 424 kts | 174° |
| 2026-04-20 19:12 | 43.48013 | 7.48133 | 28939 ft | 424 kts | 174° |
| 2026-04-20 19:13 | 43.42248 | 7.49833 | 28937 ft | 423 kts | 174° |
| 2026-04-20 19:13 | 43.36491 | 7.51522 | 28935 ft | 423 kts | 174° |
| 2026-04-20 19:14 | 43.30732 | 7.53207 | 28940 ft | 423 kts | 174° |
| 2026-04-20 19:14 | 43.24982 | 7.54899 | 28938 ft | 423 kts | 174° |
| 2026-04-20 19:15 | 43.19221 | 7.56575 | 28935 ft | 423 kts | 174° |
| 2026-04-20 19:15 | 43.16308 | 7.57416 | 28947 ft | 434 kts | 173° |
| 2026-04-20 19:15 | 43.13318 | 7.58277 | 28945 ft | 444 kts | 173° |
| 2026-04-20 19:16 | 43.07290 | 7.60680 | 28947 ft | 457 kts | 164° |
| 2026-04-20 19:16 | 43.01323 | 7.63678 | 28946 ft | 451 kts | 164° |
| 2026-04-20 19:16 | 42.98390 | 7.65144 | 28173 ft | 452 kts | 165° |
| 2026-04-20 19:17 | 42.95421 | 7.66612 | 27447 ft | 453 kts | 164° |
| 2026-04-20 19:17 | 42.92468 | 7.68073 | 26852 ft | 450 kts | 164° |
| 2026-04-20 19:17 | 42.89534 | 7.69526 | 26287 ft | 446 kts | 164° |
| 2026-04-20 19:17 | 42.86630 | 7.70963 | 25719 ft | 442 kts | 164° |
| 2026-04-20 19:18 | 42.83752 | 7.72390 | 25170 ft | 439 kts | 164° |
| 2026-04-20 19:18 | 42.80893 | 7.73803 | 24625 ft | 435 kts | 164° |
| 2026-04-20 19:18 | 42.78062 | 7.75197 | 24090 ft | 431 kts | 164° |
| 2026-04-20 19:18 | 42.75258 | 7.76575 | 23557 ft | 427 kts | 164° |
| 2026-04-20 19:19 | 42.72474 | 7.77938 | 23024 ft | 424 kts | 164° |
| 2026-04-20 19:19 | 42.69715 | 7.79287 | 22522 ft | 420 kts | 164° |
| 2026-04-20 19:19 | 42.66974 | 7.80634 | 22030 ft | 417 kts | 163° |
| 2026-04-20 19:19 | 42.64252 | 7.81974 | 21539 ft | 415 kts | 164° |
| 2026-04-20 19:20 | 42.61544 | 7.83305 | 20835 ft | 416 kts | 164° |
| 2026-04-20 19:20 | 42.58774 | 7.84659 | 19725 ft | 429 kts | 163° |
| 2026-04-20 19:20 | 42.55943 | 7.86040 | 18895 ft | 434 kts | 163° |
| 2026-04-20 19:20 | 42.53111 | 7.87424 | 18251 ft | 432 kts | 163° |
| 2026-04-20 19:21 | 42.50291 | 7.88804 | 17661 ft | 429 kts | 163° |
| 2026-04-20 19:21 | 42.47501 | 7.90168 | 17104 ft | 426 kts | 163° |
| 2026-04-20 19:21 | 42.44722 | 7.91529 | 16269 ft | 422 kts | 163° |
| 2026-04-20 19:21 | 42.42003 | 7.92860 | 15118 ft | 420 kts | 163° |
| 2026-04-20 19:22 | 42.39270 | 7.94190 | 14054 ft | 414 kts | 163° |
| 2026-04-20 19:22 | 42.36571 | 7.95499 | 13162 ft | 412 kts | 163° |
| 2026-04-20 19:22 | 42.33943 | 7.96900 | 12876 ft | 402 kts | 155° |
| 2026-04-20 19:22 | 42.31716 | 7.99114 | 12626 ft | 395 kts | 136° |
| 2026-04-20 19:23 | 42.30138 | 8.02080 | 12370 ft | 386 kts | 117° |
| 2026-04-20 19:23 | 42.29105 | 8.05380 | 12123 ft | 376 kts | 112° |
| 2026-04-20 19:23 | 42.28139 | 8.08611 | 11871 ft | 367 kts | 112° |
| 2026-04-20 19:23 | 42.27200 | 8.11755 | 11690 ft | 355 kts | 112° |
| 2026-04-20 19:24 | 42.26287 | 8.14796 | 11547 ft | 344 kts | 112° |
| 2026-04-20 19:24 | 42.25393 | 8.17769 | 11204 ft | 340 kts | 113° |
| 2026-04-20 19:24 | 42.24507 | 8.20708 | 10836 ft | 337 kts | 113° |
| 2026-04-20 19:24 | 42.23630 | 8.23619 | 10333 ft | 333 kts | 113° |
| 2026-04-20 19:25 | 42.22765 | 8.26500 | 9801 ft | 329 kts | 113° |
| 2026-04-20 19:25 | 42.21924 | 8.29288 | 9555 ft | 315 kts | 113° |
| 2026-04-20 19:25 | 42.21106 | 8.31994 | 9094 ft | 309 kts | 114° |
| 2026-04-20 19:25 | 42.20297 | 8.34666 | 8604 ft | 307 kts | 114° |
| 2026-04-20 19:26 | 42.19496 | 8.37311 | 8126 ft | 303 kts | 114° |
| 2026-04-20 19:26 | 42.18701 | 8.39924 | 7637 ft | 300 kts | 113° |
| 2026-04-20 19:26 | 42.17929 | 8.42459 | 7194 ft | 295 kts | 113° |
| 2026-04-20 19:26 | 42.17151 | 8.45006 | 6671 ft | 293 kts | 113° |
| 2026-04-20 19:27 | 42.16355 | 8.47492 | 6216 ft | 287 kts | 120° |
| 2026-04-20 19:27 | 42.15233 | 8.49662 | 5816 ft | 278 kts | 134° |
| 2026-04-20 19:27 | 42.13812 | 8.51396 | 5539 ft | 272 kts | 142° |
| 2026-04-20 19:27 | 42.12390 | 8.52996 | 5266 ft | 261 kts | 142° |
| 2026-04-20 19:28 | 42.11028 | 8.54533 | 4999 ft | 250 kts | 141° |
| 2026-04-20 19:28 | 42.09737 | 8.55989 | 4746 ft | 241 kts | 141° |
| 2026-04-20 19:28 | 42.08443 | 8.57447 | 4491 ft | 238 kts | 141° |
| 2026-04-20 19:28 | 42.07175 | 8.58871 | 4238 ft | 236 kts | 141° |
| 2026-04-20 19:29 | 42.05921 | 8.60275 | 3989 ft | 233 kts | 141° |
| 2026-04-20 19:29 | 42.04686 | 8.61659 | 3745 ft | 228 kts | 141° |
| 2026-04-20 19:29 | 42.03476 | 8.63015 | 3503 ft | 224 kts | 141° |
| 2026-04-20 19:29 | 42.02287 | 8.64347 | 3261 ft | 220 kts | 140° |
| 2026-04-20 19:30 | 42.01292 | 8.65877 | 3074 ft | 215 kts | 123° |
| 2026-04-20 19:30 | 42.00680 | 8.67655 | 3025 ft | 204 kts | 107° |
| 2026-04-20 19:30 | 42.00412 | 8.69439 | 3007 ft | 187 kts | 101° |
| 2026-04-20 19:30 | 42.00202 | 8.71080 | 2992 ft | 170 kts | 101° |
| 2026-04-20 19:31 | 42.00001 | 8.72608 | 2995 ft | 164 kts | 101° |
| 2026-04-20 19:31 | 41.99801 | 8.74112 | 2881 ft | 166 kts | 101° |
| 2026-04-20 19:31 | 41.99597 | 8.75644 | 2573 ft | 167 kts | 101° |
| 2026-04-20 19:31 | 41.99396 | 8.77161 | 2305 ft | 162 kts | 101° |
| 2026-04-20 19:32 | 41.99202 | 8.78622 | 2031 ft | 157 kts | 101° |
| 2026-04-20 19:32 | 41.99013 | 8.80040 | 1785 ft | 153 kts | 99° |
| 2026-04-20 19:32 | 41.98695 | 8.81388 | 1538 ft | 152 kts | 122° |
| 2026-04-20 19:32 | 41.97945 | 8.82378 | 1320 ft | 153 kts | 150° |
| 2026-04-20 19:33 | 41.96918 | 8.82728 | 1053 ft | 155 kts | 183° |
| 2026-04-20 19:33 | 41.95881 | 8.82368 | 796 ft | 155 kts | 199° |
| 2026-04-20 19:33 | 41.94899 | 8.81777 | 579 ft | 155 kts | 206° |
| 2026-04-20 19:33 | 41.93924 | 8.81197 | 328 ft | 155 kts | 204° |
| 2026-04-20 19:34 | 41.92949 | 8.80596 | 64 ft | 153 kts | 204° |
| 2026-04-20 19:34 | 41.92055 | 8.80035 | 29 ft | 134 kts | 204° |
| 2026-04-20 19:34 | 41.91169 | 8.79485 | 641 ft | 130 kts | 205° |
| 2026-04-20 19:34 | 41.90442 | 8.78982 | 1308 ft | 119 kts | 208° |
| 2026-04-20 19:35 | 41.89581 | 8.78315 | 1431 ft | 156 kts | 209° |
| 2026-04-20 19:35 | 41.88775 | 8.77645 | 2494 ft | 115 kts | 213° |
| 2026-04-20 19:35 | 41.88103 | 8.76971 | 2654 ft | 146 kts | 217° |
| 2026-04-20 19:35 | 41.87284 | 8.76019 | 2904 ft | 148 kts | 225° |
| 2026-04-20 19:36 | 41.86582 | 8.74953 | 2454 ft | 166 kts | 227° |
| 2026-04-20 19:36 | 41.85817 | 8.73724 | 2522 ft | 173 kts | 229° |
| 2026-04-20 19:36 | 41.85047 | 8.72485 | 2872 ft | 178 kts | 229° |
| 2026-04-20 19:36 | 41.84183 | 8.71127 | 2983 ft | 201 kts | 229° |
| 2026-04-20 19:37 | 41.83251 | 8.69692 | 3000 ft | 205 kts | 229° |
| 2026-04-20 19:37 | 41.82305 | 8.68246 | 3003 ft | 206 kts | 228° |
| 2026-04-20 19:37 | 41.81352 | 8.66799 | 3003 ft | 209 kts | 228° |
| 2026-04-20 19:37 | 41.80378 | 8.65335 | 3004 ft | 211 kts | 228° |
| 2026-04-20 19:38 | 41.79281 | 8.64034 | 2969 ft | 213 kts | 202° |
| 2026-04-20 19:38 | 41.77837 | 8.63981 | 2938 ft | 213 kts | 158° |
| 2026-04-20 19:38 | 41.76785 | 8.65303 | 2920 ft | 213 kts | 113° |
| 2026-04-20 19:38 | 41.76716 | 8.67240 | 2909 ft | 214 kts | 71° |
| 2026-04-20 19:39 | 41.77584 | 8.68815 | 2758 ft | 208 kts | 43° |
| 2026-04-20 19:39 | 41.78667 | 8.69982 | 2763 ft | 190 kts | 37° |
| 2026-04-20 19:39 | 41.79708 | 8.70986 | 2616 ft | 181 kts | 35° |
| 2026-04-20 19:39 | 41.80731 | 8.71941 | 2402 ft | 177 kts | 36° |
| 2026-04-20 19:40 | 41.81720 | 8.72859 | 2243 ft | 169 kts | 35° |
| 2026-04-20 19:40 | 41.82696 | 8.73692 | 1993 ft | 164 kts | 33° |
| 2026-04-20 19:40 | 41.83644 | 8.74469 | 1783 ft | 154 kts | 31° |
| 2026-04-20 19:40 | 41.84586 | 8.75160 | 1592 ft | 156 kts | 29° |
| 2026-04-20 19:41 | 41.85563 | 8.75839 | 1360 ft | 159 kts | 29° |
| 2026-04-20 19:41 | 41.86528 | 8.76490 | 1149 ft | 152 kts | 26° |
| 2026-04-20 19:41 | 41.87477 | 8.77107 | 928 ft | 150 kts | 27° |
| 2026-04-20 19:41 | 41.88400 | 8.77750 | 686 ft | 151 kts | 27° |
| 2026-04-20 19:42 | 41.89346 | 8.78346 | 502 ft | 149 kts | 25° |
| 2026-04-20 19:42 | 41.90285 | 8.78930 | 307 ft | 148 kts | 25° |
| 2026-04-20 19:42 | 41.91217 | 8.79511 | 99 ft | 149 kts | 25° |
| 2026-04-20 19:42 | 41.91827 | 8.79891 | 26 ft | 137 kts | 25° |
| 2026-04-20 19:43 | 41.92728 | 8.80454 | 24 ft | 76 kts | 25° |
| 2026-04-20 19:43 | 41.92933 | 8.80582 | 28 ft | 9 kts | 25° |
| 2026-04-20 19:43 | 41.92964 | 8.80585 | 27 ft | 1 kts | 259° |
| 2026-04-20 19:43 | 41.92955 | 8.80550 | 28 ft | 9 kts | 259° |
| 2026-04-20 19:44 | 41.92958 | 8.80412 | 22 ft | 19 kts | 248° |
| 2026-04-20 19:44 | 41.92923 | 8.80348 | 23 ft | 8 kts | 223° |
| 2026-04-20 19:44 | 41.92872 | 8.80283 | 22 ft | 7 kts | 223° |
| 2026-04-20 19:44 | 41.92841 | 8.80243 | 24 ft | 6 kts | 224° |
| 2026-04-20 19:45 | 41.92813 | 8.80208 | 21 ft | 7 kts | 223° |
| 2026-04-20 19:45 | 41.92758 | 8.80147 | 22 ft | 14 kts | 214° |
| 2026-04-20 19:45 | 41.92694 | 8.80100 | 23 ft | 18 kts | 205° |
| 2026-04-20 19:45 | 41.92517 | 8.79990 | 21 ft | 23 kts | 206° |
| 2026-04-20 19:46 | 41.92413 | 8.79926 | 21 ft | 25 kts | 204° |
| 2026-04-20 19:46 | 41.92245 | 8.79821 | 21 ft | 28 kts | 205° |
| 2026-04-20 19:46 | 41.92125 | 8.79747 | 21 ft | 13 kts | 205° |
| 2026-04-20 19:46 | 41.92010 | 8.79676 | 21 ft | 15 kts | 205° |
| 2026-04-20 19:47 | 41.91947 | 8.79635 | 21 ft | 15 kts | 205° |
| 2026-04-20 19:47 | 41.91883 | 8.79596 | 21 ft | 3 kts | 205° |
| 2026-04-20 19:47 | 41.91875 | 8.79580 | 21 ft | 1 kts | 256° |
| 2026-04-20 19:47 | 41.91875 | 8.79571 | 24 ft | 1 kts | 272° |
| 2026-04-20 19:48 | 41.91876 | 8.79567 | 23 ft | 0 kts | 278° |
| 2026-04-20 19:48 | 41.91879 | 8.79557 | 22 ft | 3 kts | 295° |
| 2026-04-20 19:48 | 41.91907 | 8.79539 | 21 ft | 4 kts | 343° |
| 2026-04-20 19:48 | 41.91914 | 8.79537 | 21 ft | 0 kts | 345° |